sensor_id;sensor_type;location;lat;lon;timestamp;P1;durP1;ratioP1;P2;durP2;ratioP2
5279;SDS011;2663;53.588;10.010;2023-04-25T00:02:17;8.07;;;3.93;;
5279;SDS011;2663;53.588;10.010;2023-04-25T00:04:44;10.40;;;4.77;;
5279;SDS011;2663;53.588;10.010;2023-04-25T00:07:11;14.67;;;3.90;;
5279;SDS011;2663;53.588;10.010;2023-04-25T00:09:38;8.30;;;3.10;;
5279;SDS011;2663;53.588;10.010;2023-04-25T00:12:05;15.70;;;4.20;;
5279;SDS011;2663;53.588;10.010;2023-04-25T00:14:32;11.73;;;3.33;;
5279;SDS011;2663;53.588;10.010;2023-04-25T00:17:01;12.77;;;3.50;;
5279;SDS011;2663;53.588;10.010;2023-04-25T00:19:32;16.77;;;3.97;;
5279;SDS011;2663;53.588;10.010;2023-04-25T00:22:00;21.67;;;4.07;;
5279;SDS011;2663;53.588;10.010;2023-04-25T00:24:27;11.47;;;4.20;;
5279;SDS011;2663;53.588;10.010;2023-04-25T00:26:54;17.77;;;3.97;;
5279;SDS011;2663;53.588;10.010;2023-04-25T00:29:20;22.77;;;4.77;;
5279;SDS011;2663;53.588;10.010;2023-04-25T00:31:47;17.80;;;4.13;;
5279;SDS011;2663;53.588;10.010;2023-04-25T00:34:14;15.50;;;2.87;;
5279;SDS011;2663;53.588;10.010;2023-04-25T00:36:40;18.40;;;3.53;;
5279;SDS011;2663;53.588;10.010;2023-04-25T00:39:07;14.07;;;3.50;;
5279;SDS011;2663;53.588;10.010;2023-04-25T00:41:34;25.17;;;3.40;;
5279;SDS011;2663;53.588;10.010;2023-04-25T00:44:01;27.30;;;3.83;;
5279;SDS011;2663;53.588;10.010;2023-04-25T00:46:30;22.80;;;3.90;;
5279;SDS011;2663;53.588;10.010;2023-04-25T00:48:57;20.27;;;4.00;;
5279;SDS011;2663;53.588;10.010;2023-04-25T00:51:24;18.33;;;3.00;;
5279;SDS011;2663;53.588;10.010;2023-04-25T00:53:52;22.77;;;3.17;;
5279;SDS011;2663;53.588;10.010;2023-04-25T00:56:19;22.03;;;2.87;;
5279;SDS011;2663;53.588;10.010;2023-04-25T00:58:47;25.67;;;4.23;;
5279;SDS011;2663;53.588;10.010;2023-04-25T01:01:15;25.87;;;4.10;;
5279;SDS011;2663;53.588;10.010;2023-04-25T01:03:42;18.30;;;3.37;;
5279;SDS011;2663;53.588;10.010;2023-04-25T01:06:11;23.50;;;4.10;;
5279;SDS011;2663;53.588;10.010;2023-04-25T01:08:39;15.80;;;3.60;;
5279;SDS011;2663;53.588;10.010;2023-04-25T01:11:06;22.40;;;3.20;;
5279;SDS011;2663;53.588;10.010;2023-04-25T01:13:33;22.27;;;3.73;;
5279;SDS011;2663;53.588;10.010;2023-04-25T01:16:01;17.47;;;3.83;;
5279;SDS011;2663;53.588;10.010;2023-04-25T01:18:28;19.50;;;4.60;;
5279;SDS011;2663;53.588;10.010;2023-04-25T01:20:55;22.50;;;3.30;;
5279;SDS011;2663;53.588;10.010;2023-04-25T01:23:22;22.43;;;3.40;;
5279;SDS011;2663;53.588;10.010;2023-04-25T01:25:49;29.13;;;3.93;;
5279;SDS011;2663;53.588;10.010;2023-04-25T01:28:16;19.33;;;3.70;;
5279;SDS011;2663;53.588;10.010;2023-04-25T01:30:43;28.20;;;4.33;;
5279;SDS011;2663;53.588;10.010;2023-04-25T01:33:10;29.60;;;3.67;;
5279;SDS011;2663;53.588;10.010;2023-04-25T01:35:39;33.70;;;4.30;;
5279;SDS011;2663;53.588;10.010;2023-04-25T01:38:06;35.00;;;4.37;;
5279;SDS011;2663;53.588;10.010;2023-04-25T01:40:33;20.43;;;4.47;;
5279;SDS011;2663;53.588;10.010;2023-04-25T01:43:00;17.23;;;3.43;;
5279;SDS011;2663;53.588;10.010;2023-04-25T01:45:27;35.73;;;5.27;;
5279;SDS011;2663;53.588;10.010;2023-04-25T01:47:53;19.43;;;3.43;;
5279;SDS011;2663;53.588;10.010;2023-04-25T01:50:20;16.90;;;4.40;;
5279;SDS011;2663;53.588;10.010;2023-04-25T01:52:47;20.57;;;3.63;;
5279;SDS011;2663;53.588;10.010;2023-04-25T01:55:14;26.63;;;5.87;;
5279;SDS011;2663;53.588;10.010;2023-04-25T01:57:41;28.30;;;5.83;;
5279;SDS011;2663;53.588;10.010;2023-04-25T02:00:08;20.67;;;4.27;;
5279;SDS011;2663;53.588;10.010;2023-04-25T02:02:35;30.13;;;4.73;;
5279;SDS011;2663;53.588;10.010;2023-04-25T02:05:02;28.40;;;3.93;;
5279;SDS011;2663;53.588;10.010;2023-04-25T02:07:29;24.80;;;3.90;;
5279;SDS011;2663;53.588;10.010;2023-04-25T02:09:55;35.00;;;4.33;;
5279;SDS011;2663;53.588;10.010;2023-04-25T02:12:22;42.57;;;5.13;;
5279;SDS011;2663;53.588;10.010;2023-04-25T02:14:49;17.13;;;3.20;;
5279;SDS011;2663;53.588;10.010;2023-04-25T02:17:16;29.53;;;5.17;;
5279;SDS011;2663;53.588;10.010;2023-04-25T02:19:43;17.20;;;3.90;;
5279;SDS011;2663;53.588;10.010;2023-04-25T02:22:10;17.13;;;4.47;;
5279;SDS011;2663;53.588;10.010;2023-04-25T02:24:36;21.47;;;4.40;;
5279;SDS011;2663;53.588;10.010;2023-04-25T02:27:03;25.03;;;4.00;;
5279;SDS011;2663;53.588;10.010;2023-04-25T02:29:30;16.50;;;3.83;;
5279;SDS011;2663;53.588;10.010;2023-04-25T02:31:56;26.73;;;4.23;;
5279;SDS011;2663;53.588;10.010;2023-04-25T02:34:23;22.70;;;4.80;;
5279;SDS011;2663;53.588;10.010;2023-04-25T02:36:50;27.13;;;4.63;;
5279;SDS011;2663;53.588;10.010;2023-04-25T02:39:17;18.33;;;3.60;;
5279;SDS011;2663;53.588;10.010;2023-04-25T02:41:43;24.23;;;5.53;;
5279;SDS011;2663;53.588;10.010;2023-04-25T02:44:10;17.77;;;3.80;;
5279;SDS011;2663;53.588;10.010;2023-04-25T02:46:37;32.90;;;4.40;;
5279;SDS011;2663;53.588;10.010;2023-04-25T02:49:05;21.77;;;4.60;;
5279;SDS011;2663;53.588;10.010;2023-04-25T02:51:32;13.27;;;3.13;;
5279;SDS011;2663;53.588;10.010;2023-04-25T02:53:59;18.13;;;3.17;;
5279;SDS011;2663;53.588;10.010;2023-04-25T02:56:25;12.80;;;3.23;;
5279;SDS011;2663;53.588;10.010;2023-04-25T02:58:53;22.07;;;2.77;;
5279;SDS011;2663;53.588;10.010;2023-04-25T03:01:19;25.83;;;4.67;;
5279;SDS011;2663;53.588;10.010;2023-04-25T03:03:46;22.27;;;4.80;;
5279;SDS011;2663;53.588;10.010;2023-04-25T03:06:13;19.93;;;4.30;;
5279;SDS011;2663;53.588;10.010;2023-04-25T03:08:41;17.47;;;4.03;;
5279;SDS011;2663;53.588;10.010;2023-04-25T03:11:08;10.60;;;2.93;;
5279;SDS011;2663;53.588;10.010;2023-04-25T03:13:36;23.80;;;3.30;;
5279;SDS011;2663;53.588;10.010;2023-04-25T03:16:03;24.80;;;5.97;;
5279;SDS011;2663;53.588;10.010;2023-04-25T03:18:30;14.77;;;5.30;;
5279;SDS011;2663;53.588;10.010;2023-04-25T03:20:57;18.20;;;3.87;;
5279;SDS011;2663;53.588;10.010;2023-04-25T03:23:24;16.43;;;2.57;;
5279;SDS011;2663;53.588;10.010;2023-04-25T03:25:52;22.23;;;4.27;;
5279;SDS011;2663;53.588;10.010;2023-04-25T03:28:18;21.17;;;3.90;;
5279;SDS011;2663;53.588;10.010;2023-04-25T03:30:46;12.07;;;3.50;;
5279;SDS011;2663;53.588;10.010;2023-04-25T03:33:12;21.53;;;3.27;;
5279;SDS011;2663;53.588;10.010;2023-04-25T03:35:39;15.70;;;3.80;;
5279;SDS011;2663;53.588;10.010;2023-04-25T03:38:05;23.80;;;3.50;;
5279;SDS011;2663;53.588;10.010;2023-04-25T03:40:32;8.43;;;2.23;;
5279;SDS011;2663;53.588;10.010;2023-04-25T03:42:59;16.83;;;3.80;;
5279;SDS011;2663;53.588;10.010;2023-04-25T03:45:25;23.17;;;3.97;;
5279;SDS011;2663;53.588;10.010;2023-04-25T03:47:52;13.87;;;3.40;;
5279;SDS011;2663;53.588;10.010;2023-04-25T03:50:19;15.27;;;4.10;;
5279;SDS011;2663;53.588;10.010;2023-04-25T03:52:45;9.80;;;2.63;;
5279;SDS011;2663;53.588;10.010;2023-04-25T03:55:12;12.03;;;2.47;;
5279;SDS011;2663;53.588;10.010;2023-04-25T03:57:39;11.00;;;3.07;;
5279;SDS011;2663;53.588;10.010;2023-04-25T04:00:06;6.30;;;3.47;;
5279;SDS011;2663;53.588;10.010;2023-04-25T04:02:33;26.73;;;2.90;;
5279;SDS011;2663;53.588;10.010;2023-04-25T04:05:01;16.53;;;2.70;;
5279;SDS011;2663;53.588;10.010;2023-04-25T04:07:29;13.60;;;2.30;;
5279;SDS011;2663;53.588;10.010;2023-04-25T04:09:55;15.57;;;3.17;;
5279;SDS011;2663;53.588;10.010;2023-04-25T04:12:22;13.40;;;2.40;;
5279;SDS011;2663;53.588;10.010;2023-04-25T04:14:49;21.90;;;3.07;;
5279;SDS011;2663;53.588;10.010;2023-04-25T04:17:15;23.93;;;3.60;;
5279;SDS011;2663;53.588;10.010;2023-04-25T04:19:42;31.30;;;4.40;;
5279;SDS011;2663;53.588;10.010;2023-04-25T04:22:09;9.57;;;2.37;;
5279;SDS011;2663;53.588;10.010;2023-04-25T04:24:36;22.50;;;2.30;;
5279;SDS011;2663;53.588;10.010;2023-04-25T04:27:02;21.27;;;2.77;;
5279;SDS011;2663;53.588;10.010;2023-04-25T04:29:30;15.27;;;2.63;;
5279;SDS011;2663;53.588;10.010;2023-04-25T04:31:57;19.70;;;2.60;;
5279;SDS011;2663;53.588;10.010;2023-04-25T04:34:24;16.33;;;2.93;;
5279;SDS011;2663;53.588;10.010;2023-04-25T04:36:51;6.33;;;2.13;;
5279;SDS011;2663;53.588;10.010;2023-04-25T04:39:18;10.80;;;2.50;;
5279;SDS011;2663;53.588;10.010;2023-04-25T04:41:45;17.40;;;3.33;;
5279;SDS011;2663;53.588;10.010;2023-04-25T04:44:11;14.93;;;2.27;;
5279;SDS011;2663;53.588;10.010;2023-04-25T04:46:38;11.53;;;2.60;;
5279;SDS011;2663;53.588;10.010;2023-04-25T04:49:08;21.57;;;2.87;;
5279;SDS011;2663;53.588;10.010;2023-04-25T04:51:35;17.70;;;3.10;;
5279;SDS011;2663;53.588;10.010;2023-04-25T04:54:03;12.67;;;3.27;;
5279;SDS011;2663;53.588;10.010;2023-04-25T04:56:30;15.67;;;2.80;;
5279;SDS011;2663;53.588;10.010;2023-04-25T04:58:57;21.63;;;3.90;;
5279;SDS011;2663;53.588;10.010;2023-04-25T05:01:25;9.90;;;2.30;;
5279;SDS011;2663;53.588;10.010;2023-04-25T05:03:52;6.40;;;1.70;;
5279;SDS011;2663;53.588;10.010;2023-04-25T05:06:20;11.17;;;2.57;;
5279;SDS011;2663;53.588;10.010;2023-04-25T05:08:47;31.67;;;2.73;;
5279;SDS011;2663;53.588;10.010;2023-04-25T05:11:13;13.63;;;2.30;;
5279;SDS011;2663;53.588;10.010;2023-04-25T05:13:40;9.57;;;2.73;;
5279;SDS011;2663;53.588;10.010;2023-04-25T05:16:07;13.33;;;3.33;;
5279;SDS011;2663;53.588;10.010;2023-04-25T05:18:33;8.53;;;2.33;;
5279;SDS011;2663;53.588;10.010;2023-04-25T05:21:00;14.30;;;2.67;;
5279;SDS011;2663;53.588;10.010;2023-04-25T05:23:27;7.80;;;2.67;;
5279;SDS011;2663;53.588;10.010;2023-04-25T05:25:54;16.37;;;2.70;;
5279;SDS011;2663;53.588;10.010;2023-04-25T05:28:21;27.50;;;4.10;;
5279;SDS011;2663;53.588;10.010;2023-04-25T05:30:48;16.97;;;2.67;;
5279;SDS011;2663;53.588;10.010;2023-04-25T05:33:15;6.37;;;1.90;;
5279;SDS011;2663;53.588;10.010;2023-04-25T05:35:42;18.23;;;3.20;;
5279;SDS011;2663;53.588;10.010;2023-04-25T05:38:08;19.43;;;3.10;;
5279;SDS011;2663;53.588;10.010;2023-04-25T05:40:35;12.20;;;2.70;;
5279;SDS011;2663;53.588;10.010;2023-04-25T05:43:02;16.03;;;2.20;;
5279;SDS011;2663;53.588;10.010;2023-04-25T05:45:28;14.73;;;3.23;;
5279;SDS011;2663;53.588;10.010;2023-04-25T05:47:55;10.17;;;2.73;;
5279;SDS011;2663;53.588;10.010;2023-04-25T05:50:22;21.07;;;3.70;;
5279;SDS011;2663;53.588;10.010;2023-04-25T05:52:49;10.03;;;2.47;;
5279;SDS011;2663;53.588;10.010;2023-04-25T05:55:15;13.10;;;3.10;;
5279;SDS011;2663;53.588;10.010;2023-04-25T05:57:42;19.70;;;3.60;;
5279;SDS011;2663;53.588;10.010;2023-04-25T06:00:12;17.07;;;3.60;;
5279;SDS011;2663;53.588;10.010;2023-04-25T06:02:39;19.93;;;3.17;;
5279;SDS011;2663;53.588;10.010;2023-04-25T06:05:06;18.33;;;3.00;;
5279;SDS011;2663;53.588;10.010;2023-04-25T06:07:34;16.77;;;2.53;;
5279;SDS011;2663;53.588;10.010;2023-04-25T06:10:00;16.67;;;4.10;;
5279;SDS011;2663;53.588;10.010;2023-04-25T06:12:27;18.20;;;2.63;;
5279;SDS011;2663;53.588;10.010;2023-04-25T06:14:54;8.30;;;2.53;;
5279;SDS011;2663;53.588;10.010;2023-04-25T06:17:20;17.00;;;3.40;;
5279;SDS011;2663;53.588;10.010;2023-04-25T06:19:47;10.53;;;2.20;;
5279;SDS011;2663;53.588;10.010;2023-04-25T06:22:14;11.93;;;2.47;;
5279;SDS011;2663;53.588;10.010;2023-04-25T06:24:40;26.30;;;3.63;;
5279;SDS011;2663;53.588;10.010;2023-04-25T06:27:07;14.17;;;3.20;;
5279;SDS011;2663;53.588;10.010;2023-04-25T06:29:34;8.43;;;2.33;;
5279;SDS011;2663;53.588;10.010;2023-04-25T06:32:01;10.37;;;2.60;;
5279;SDS011;2663;53.588;10.010;2023-04-25T06:34:27;14.67;;;2.20;;
5279;SDS011;2663;53.588;10.010;2023-04-25T06:36:54;13.33;;;2.00;;
5279;SDS011;2663;53.588;10.010;2023-04-25T06:39:22;19.43;;;2.60;;
5279;SDS011;2663;53.588;10.010;2023-04-25T06:41:51;7.83;;;1.93;;
5279;SDS011;2663;53.588;10.010;2023-04-25T06:44:19;12.47;;;2.27;;
5279;SDS011;2663;53.588;10.010;2023-04-25T06:46:47;14.67;;;2.73;;
5279;SDS011;2663;53.588;10.010;2023-04-25T06:49:13;15.20;;;2.60;;
5279;SDS011;2663;53.588;10.010;2023-04-25T06:51:40;10.67;;;2.17;;
5279;SDS011;2663;53.588;10.010;2023-04-25T06:54:07;16.93;;;2.27;;
5279;SDS011;2663;53.588;10.010;2023-04-25T06:56:34;9.53;;;2.40;;
5279;SDS011;2663;53.588;10.010;2023-04-25T06:59:01;8.83;;;2.80;;
5279;SDS011;2663;53.588;10.010;2023-04-25T07:01:27;23.50;;;2.80;;
5279;SDS011;2663;53.588;10.010;2023-04-25T07:03:54;11.67;;;2.40;;
5279;SDS011;2663;53.588;10.010;2023-04-25T07:06:21;9.20;;;2.17;;
5279;SDS011;2663;53.588;10.010;2023-04-25T07:08:48;11.20;;;3.60;;
5279;SDS011;2663;53.588;10.010;2023-04-25T07:11:15;12.10;;;2.27;;
5279;SDS011;2663;53.588;10.010;2023-04-25T07:13:41;12.97;;;2.77;;
5279;SDS011;2663;53.588;10.010;2023-04-25T07:16:08;11.40;;;2.87;;
5279;SDS011;2663;53.588;10.010;2023-04-25T07:18:35;6.73;;;1.70;;
5279;SDS011;2663;53.588;10.010;2023-04-25T07:21:02;9.17;;;2.17;;
5279;SDS011;2663;53.588;10.010;2023-04-25T07:23:28;8.80;;;2.33;;
5279;SDS011;2663;53.588;10.010;2023-04-25T07:25:56;9.07;;;1.33;;
5279;SDS011;2663;53.588;10.010;2023-04-25T07:28:22;5.80;;;2.50;;
5279;SDS011;2663;53.588;10.010;2023-04-25T07:30:49;12.20;;;2.80;;
5279;SDS011;2663;53.588;10.010;2023-04-25T07:33:16;13.63;;;2.70;;
5279;SDS011;2663;53.588;10.010;2023-04-25T07:35:46;4.67;;;1.40;;
5279;SDS011;2663;53.588;10.010;2023-04-25T07:38:13;14.03;;;1.83;;
5279;SDS011;2663;53.588;10.010;2023-04-25T07:40:40;4.57;;;1.37;;
5279;SDS011;2663;53.588;10.010;2023-04-25T07:43:06;18.43;;;1.67;;
5279;SDS011;2663;53.588;10.010;2023-04-25T07:45:33;13.33;;;2.30;;
5279;SDS011;2663;53.588;10.010;2023-04-25T07:47:59;10.00;;;2.33;;
5279;SDS011;2663;53.588;10.010;2023-04-25T07:50:26;5.83;;;1.77;;
5279;SDS011;2663;53.588;10.010;2023-04-25T07:52:53;11.70;;;2.73;;
5279;SDS011;2663;53.588;10.010;2023-04-25T07:55:19;9.13;;;2.20;;
5279;SDS011;2663;53.588;10.010;2023-04-25T07:57:46;6.97;;;2.00;;
5279;SDS011;2663;53.588;10.010;2023-04-25T08:00:13;10.00;;;2.00;;
5279;SDS011;2663;53.588;10.010;2023-04-25T08:02:41;23.37;;;2.37;;
5279;SDS011;2663;53.588;10.010;2023-04-25T08:05:07;10.60;;;2.10;;
5279;SDS011;2663;53.588;10.010;2023-04-25T08:07:38;10.60;;;1.80;;
5279;SDS011;2663;53.588;10.010;2023-04-25T08:10:05;10.37;;;1.47;;
5279;SDS011;2663;53.588;10.010;2023-04-25T08:12:32;4.33;;;0.97;;
5279;SDS011;2663;53.588;10.010;2023-04-25T08:14:59;6.50;;;1.63;;
5279;SDS011;2663;53.588;10.010;2023-04-25T08:17:26;10.47;;;2.17;;
5279;SDS011;2663;53.588;10.010;2023-04-25T08:19:53;9.07;;;2.00;;
5279;SDS011;2663;53.588;10.010;2023-04-25T08:22:20;7.20;;;1.50;;
5279;SDS011;2663;53.588;10.010;2023-04-25T08:24:46;14.10;;;1.60;;
5279;SDS011;2663;53.588;10.010;2023-04-25T08:27:13;6.83;;;1.60;;
5279;SDS011;2663;53.588;10.010;2023-04-25T08:29:41;11.17;;;1.93;;
5279;SDS011;2663;53.588;10.010;2023-04-25T08:32:08;13.30;;;2.37;;
5279;SDS011;2663;53.588;10.010;2023-04-25T08:34:34;11.60;;;1.90;;
5279;SDS011;2663;53.588;10.010;2023-04-25T08:37:02;3.53;;;1.07;;
5279;SDS011;2663;53.588;10.010;2023-04-25T08:39:30;6.70;;;2.07;;
5279;SDS011;2663;53.588;10.010;2023-04-25T08:41:57;22.73;;;1.93;;
5279;SDS011;2663;53.588;10.010;2023-04-25T08:44:23;12.83;;;2.30;;
5279;SDS011;2663;53.588;10.010;2023-04-25T08:46:51;18.83;;;2.57;;
5279;SDS011;2663;53.588;10.010;2023-04-25T08:49:18;7.53;;;2.00;;
5279;SDS011;2663;53.588;10.010;2023-04-25T08:51:46;10.83;;;1.90;;
5279;SDS011;2663;53.588;10.010;2023-04-25T08:54:14;8.73;;;1.80;;
5279;SDS011;2663;53.588;10.010;2023-04-25T08:57:01;20.27;;;3.43;;
5279;SDS011;2663;53.588;10.010;2023-04-25T08:59:28;8.30;;;1.73;;
5279;SDS011;2663;53.588;10.010;2023-04-25T09:01:56;12.60;;;2.53;;
5279;SDS011;2663;53.588;10.010;2023-04-25T09:04:23;8.90;;;1.80;;
5279;SDS011;2663;53.588;10.010;2023-04-25T09:06:50;1.27;;;1.03;;
5279;SDS011;2663;53.588;10.010;2023-04-25T09:09:17;10.53;;;1.87;;
5279;SDS011;2663;53.588;10.010;2023-04-25T09:11:44;2.43;;;1.00;;
5279;SDS011;2663;53.588;10.010;2023-04-25T09:19:26;17.30;;;1.50;;
5279;SDS011;2663;53.588;10.010;2023-04-25T09:22:04;7.30;;;1.20;;
5279;SDS011;2663;53.588;10.010;2023-04-25T09:24:44;4.77;;;1.60;;
5279;SDS011;2663;53.588;10.010;2023-04-25T09:27:13;2.50;;;1.80;;
5279;SDS011;2663;53.588;10.010;2023-04-25T09:29:45;7.47;;;1.60;;
5279;SDS011;2663;53.588;10.010;2023-04-25T09:32:14;3.37;;;1.53;;
5279;SDS011;2663;53.588;10.010;2023-04-25T09:34:43;5.77;;;1.40;;
5279;SDS011;2663;53.588;10.010;2023-04-25T09:37:16;8.03;;;1.63;;
5279;SDS011;2663;53.588;10.010;2023-04-25T09:39:46;11.20;;;1.30;;
5279;SDS011;2663;53.588;10.010;2023-04-25T09:42:14;9.20;;;1.43;;
5279;SDS011;2663;53.588;10.010;2023-04-25T09:44:43;4.00;;;1.10;;
5279;SDS011;2663;53.588;10.010;2023-04-25T09:47:12;4.93;;;1.53;;
5279;SDS011;2663;53.588;10.010;2023-04-25T09:49:41;8.70;;;1.40;;
5279;SDS011;2663;53.588;10.010;2023-04-25T09:52:09;8.27;;;1.93;;
5279;SDS011;2663;53.588;10.010;2023-04-25T09:54:39;4.70;;;1.50;;
5279;SDS011;2663;53.588;10.010;2023-04-25T09:57:10;4.73;;;1.50;;
5279;SDS011;2663;53.588;10.010;2023-04-25T09:59:50;3.57;;;1.77;;
5279;SDS011;2663;53.588;10.010;2023-04-25T10:02:19;10.20;;;1.63;;
5279;SDS011;2663;53.588;10.010;2023-04-25T10:04:49;9.87;;;2.10;;
5279;SDS011;2663;53.588;10.010;2023-04-25T10:07:22;12.30;;;2.40;;
5279;SDS011;2663;53.588;10.010;2023-04-25T10:10:02;11.00;;;1.53;;
5279;SDS011;2663;53.588;10.010;2023-04-25T10:12:30;10.37;;;1.90;;
5279;SDS011;2663;53.588;10.010;2023-04-25T10:14:58;6.30;;;1.10;;
5279;SDS011;2663;53.588;10.010;2023-04-25T10:17:26;2.50;;;0.70;;
5279;SDS011;2663;53.588;10.010;2023-04-25T10:19:54;6.80;;;0.93;;
5279;SDS011;2663;53.588;10.010;2023-04-25T10:22:34;3.87;;;1.00;;
5279;SDS011;2663;53.588;10.010;2023-04-25T10:25:02;11.10;;;1.80;;
5279;SDS011;2663;53.588;10.010;2023-04-25T10:27:30;5.10;;;1.90;;
5279;SDS011;2663;53.588;10.010;2023-04-25T10:30:04;9.03;;;1.03;;
5279;SDS011;2663;53.588;10.010;2023-04-25T10:32:44;10.20;;;2.07;;
5279;SDS011;2663;53.588;10.010;2023-04-25T10:35:17;8.80;;;1.60;;
5279;SDS011;2663;53.588;10.010;2023-04-25T10:38:04;2.63;;;1.07;;
5279;SDS011;2663;53.588;10.010;2023-04-25T10:40:35;5.53;;;1.70;;
5279;SDS011;2663;53.588;10.010;2023-04-25T10:45:59;6.93;;;1.40;;
5279;SDS011;2663;53.588;10.010;2023-04-25T10:48:27;8.37;;;1.47;;
5279;SDS011;2663;53.588;10.010;2023-04-25T10:51:07;10.03;;;1.70;;
5279;SDS011;2663;53.588;10.010;2023-04-25T10:53:40;6.23;;;2.30;;
5279;SDS011;2663;53.588;10.010;2023-04-25T10:56:10;6.93;;;1.60;;
5279;SDS011;2663;53.588;10.010;2023-04-25T10:58:45;10.50;;;2.43;;
5279;SDS011;2663;53.588;10.010;2023-04-25T11:01:15;10.07;;;1.70;;
5279;SDS011;2663;53.588;10.010;2023-04-25T11:03:45;8.63;;;1.17;;
5279;SDS011;2663;53.588;10.010;2023-04-25T11:06:23;4.83;;;1.47;;
5279;SDS011;2663;53.588;10.010;2023-04-25T11:09:03;4.50;;;1.30;;
5279;SDS011;2663;53.588;10.010;2023-04-25T11:11:39;5.70;;;1.20;;
5279;SDS011;2663;53.588;10.010;2023-04-25T11:14:06;8.80;;;1.53;;
5279;SDS011;2663;53.588;10.010;2023-04-25T11:16:33;19.17;;;1.50;;
5279;SDS011;2663;53.588;10.010;2023-04-25T11:18:59;10.17;;;1.20;;
5279;SDS011;2663;53.588;10.010;2023-04-25T11:21:26;14.53;;;1.40;;
5279;SDS011;2663;53.588;10.010;2023-04-25T11:23:54;15.03;;;2.07;;
5279;SDS011;2663;53.588;10.010;2023-04-25T11:26:23;14.13;;;1.77;;
5279;SDS011;2663;53.588;10.010;2023-04-25T11:28:50;6.50;;;1.67;;
5279;SDS011;2663;53.588;10.010;2023-04-25T11:31:20;10.93;;;1.57;;
5279;SDS011;2663;53.588;10.010;2023-04-25T11:33:47;5.83;;;1.00;;
5279;SDS011;2663;53.588;10.010;2023-04-25T11:36:14;7.40;;;1.17;;
5279;SDS011;2663;53.588;10.010;2023-04-25T11:38:41;5.70;;;1.20;;
5279;SDS011;2663;53.588;10.010;2023-04-25T11:41:08;12.73;;;2.77;;
5279;SDS011;2663;53.588;10.010;2023-04-25T11:43:34;3.20;;;0.90;;
5279;SDS011;2663;53.588;10.010;2023-04-25T11:46:01;3.00;;;1.23;;
5279;SDS011;2663;53.588;10.010;2023-04-25T11:48:37;7.70;;;0.87;;
5279;SDS011;2663;53.588;10.010;2023-04-25T11:51:07;8.03;;;1.33;;
5279;SDS011;2663;53.588;10.010;2023-04-25T11:53:34;9.70;;;1.90;;
5279;SDS011;2663;53.588;10.010;2023-04-25T11:56:01;3.43;;;0.70;;
5279;SDS011;2663;53.588;10.010;2023-04-25T11:58:28;3.23;;;1.00;;
5279;SDS011;2663;53.588;10.010;2023-04-25T12:00:55;7.03;;;1.17;;
5279;SDS011;2663;53.588;10.010;2023-04-25T12:03:24;6.83;;;1.57;;
5279;SDS011;2663;53.588;10.010;2023-04-25T12:06:02;2.73;;;1.10;;
5279;SDS011;2663;53.588;10.010;2023-04-25T12:08:30;6.13;;;0.90;;
5279;SDS011;2663;53.588;10.010;2023-04-25T12:10:57;6.20;;;1.63;;
5279;SDS011;2663;53.588;10.010;2023-04-25T12:13:24;7.23;;;1.53;;
5279;SDS011;2663;53.588;10.010;2023-04-25T12:15:54;4.13;;;1.37;;
5279;SDS011;2663;53.588;10.010;2023-04-25T12:18:25;3.00;;;1.10;;
5279;SDS011;2663;53.588;10.010;2023-04-25T12:20:54;1.10;;;0.70;;
5279;SDS011;2663;53.588;10.010;2023-04-25T12:23:27;2.70;;;1.00;;
5279;SDS011;2663;53.588;10.010;2023-04-25T12:25:54;12.13;;;1.80;;
5279;SDS011;2663;53.588;10.010;2023-04-25T12:28:23;3.80;;;0.90;;
5279;SDS011;2663;53.588;10.010;2023-04-25T12:30:53;3.00;;;0.80;;
5279;SDS011;2663;53.588;10.010;2023-04-25T12:33:21;5.30;;;0.60;;
5279;SDS011;2663;53.588;10.010;2023-04-25T12:35:48;4.77;;;1.40;;
5279;SDS011;2663;53.588;10.010;2023-04-25T12:38:24;3.23;;;1.00;;
5279;SDS011;2663;53.588;10.010;2023-04-25T12:40:56;7.83;;;1.67;;
5279;SDS011;2663;53.588;10.010;2023-04-25T12:43:23;1.30;;;0.70;;
5279;SDS011;2663;53.588;10.010;2023-04-25T12:45:51;2.20;;;1.23;;
5279;SDS011;2663;53.588;10.010;2023-04-25T12:48:19;6.07;;;1.10;;
5279;SDS011;2663;53.588;10.010;2023-04-25T12:50:46;5.00;;;1.80;;
5279;SDS011;2663;53.588;10.010;2023-04-25T12:53:15;2.00;;;0.87;;
5279;SDS011;2663;53.588;10.010;2023-04-25T12:55:43;3.83;;;1.30;;
5279;SDS011;2663;53.588;10.010;2023-04-25T12:58:12;3.37;;;0.80;;
5279;SDS011;2663;53.588;10.010;2023-04-25T13:00:43;7.53;;;2.13;;
5279;SDS011;2663;53.588;10.010;2023-04-25T13:03:10;9.00;;;0.93;;
5279;SDS011;2663;53.588;10.010;2023-04-25T13:05:38;7.00;;;0.90;;
5279;SDS011;2663;53.588;10.010;2023-04-25T13:08:05;9.23;;;3.33;;
5279;SDS011;2663;53.588;10.010;2023-04-25T13:10:32;8.70;;;1.57;;
5279;SDS011;2663;53.588;10.010;2023-04-25T13:13:00;8.37;;;1.47;;
5279;SDS011;2663;53.588;10.010;2023-04-25T13:15:27;2.47;;;1.17;;
5279;SDS011;2663;53.588;10.010;2023-04-25T13:17:54;2.87;;;1.30;;
5279;SDS011;2663;53.588;10.010;2023-04-25T13:20:22;5.60;;;1.10;;
5279;SDS011;2663;53.588;10.010;2023-04-25T13:22:49;5.27;;;1.00;;
5279;SDS011;2663;53.588;10.010;2023-04-25T13:25:16;3.53;;;0.87;;
5279;SDS011;2663;53.588;10.010;2023-04-25T13:27:42;2.20;;;1.53;;
5279;SDS011;2663;53.588;10.010;2023-04-25T13:30:10;5.63;;;1.50;;
5279;SDS011;2663;53.588;10.010;2023-04-25T13:32:38;6.70;;;1.10;;
5279;SDS011;2663;53.588;10.010;2023-04-25T13:35:06;10.23;;;1.17;;
5279;SDS011;2663;53.588;10.010;2023-04-25T13:37:36;6.77;;;1.50;;
5279;SDS011;2663;53.588;10.010;2023-04-25T13:40:04;6.43;;;2.03;;
5279;SDS011;2663;53.588;10.010;2023-04-25T13:42:36;3.53;;;1.90;;
5279;SDS011;2663;53.588;10.010;2023-04-25T13:45:04;10.50;;;1.60;;
5279;SDS011;2663;53.588;10.010;2023-04-25T13:47:31;4.60;;;1.97;;
5279;SDS011;2663;53.588;10.010;2023-04-25T13:49:58;9.60;;;1.80;;
5279;SDS011;2663;53.588;10.010;2023-04-25T13:52:25;7.73;;;1.33;;
5279;SDS011;2663;53.588;10.010;2023-04-25T13:54:52;6.00;;;1.23;;
5279;SDS011;2663;53.588;10.010;2023-04-25T13:57:19;8.60;;;1.27;;
5279;SDS011;2663;53.588;10.010;2023-04-25T13:59:45;7.83;;;2.00;;
5279;SDS011;2663;53.588;10.010;2023-04-25T14:02:13;3.53;;;1.20;;
5279;SDS011;2663;53.588;10.010;2023-04-25T14:04:40;9.70;;;1.13;;
5279;SDS011;2663;53.588;10.010;2023-04-25T14:07:07;3.80;;;1.23;;
5279;SDS011;2663;53.588;10.010;2023-04-25T14:09:34;6.37;;;1.40;;
5279;SDS011;2663;53.588;10.010;2023-04-25T14:12:01;5.93;;;1.37;;
5279;SDS011;2663;53.588;10.010;2023-04-25T14:14:28;10.23;;;1.60;;
5279;SDS011;2663;53.588;10.010;2023-04-25T14:16:54;1.23;;;1.13;;
5279;SDS011;2663;53.588;10.010;2023-04-25T14:19:23;5.10;;;1.07;;
5279;SDS011;2663;53.588;10.010;2023-04-25T14:21:50;6.53;;;1.87;;
5279;SDS011;2663;53.588;10.010;2023-04-25T14:24:17;8.13;;;1.43;;
5279;SDS011;2663;53.588;10.010;2023-04-25T14:26:43;8.70;;;2.13;;
5279;SDS011;2663;53.588;10.010;2023-04-25T14:29:10;7.20;;;1.60;;
5279;SDS011;2663;53.588;10.010;2023-04-25T14:31:40;10.80;;;1.67;;
5279;SDS011;2663;53.588;10.010;2023-04-25T14:34:07;8.77;;;0.87;;
5279;SDS011;2663;53.588;10.010;2023-04-25T14:36:35;5.37;;;1.53;;
5279;SDS011;2663;53.588;10.010;2023-04-25T14:39:03;6.67;;;1.70;;
5279;SDS011;2663;53.588;10.010;2023-04-25T14:41:31;1.50;;;1.40;;
5279;SDS011;2663;53.588;10.010;2023-04-25T14:43:58;7.37;;;1.27;;
5279;SDS011;2663;53.588;10.010;2023-04-25T14:46:24;4.07;;;1.77;;
5279;SDS011;2663;53.588;10.010;2023-04-25T14:48:52;17.67;;;1.57;;
5279;SDS011;2663;53.588;10.010;2023-04-25T14:51:19;4.83;;;2.20;;
5279;SDS011;2663;53.588;10.010;2023-04-25T14:53:46;5.17;;;1.30;;
5279;SDS011;2663;53.588;10.010;2023-04-25T14:56:12;3.33;;;1.27;;
5279;SDS011;2663;53.588;10.010;2023-04-25T14:58:39;10.07;;;1.73;;
5279;SDS011;2663;53.588;10.010;2023-04-25T15:01:06;4.03;;;1.03;;
5279;SDS011;2663;53.588;10.010;2023-04-25T15:03:34;7.00;;;0.90;;
5279;SDS011;2663;53.588;10.010;2023-04-25T15:06:01;3.93;;;1.00;;